Skip Navigation LinksHome page > Weather > Current weather Skip Navigation Links

Current Weather

Eureka, Nunavut

For information only: do not use for flight planning or navigation.
Latest weather
Observation time Friday, May 25, 2018 7:00 AM CDT
Local time Friday, May 25, 2018 7:46 AM CDT
Flight conditions Visual Meteorological Conditions
Winds
Wind direction South-Southwest (210°)
Wind speed 7 mph
Visibility 15 mi.
Sky condition
Ceiling 22,000 ft. broken clouds
Cloud layer few clouds 1,000 ft.
Cloud layer few clouds 3,000 ft.
Cloud layer few clouds 10,000 ft.
Cloud layer broken clouds 22,000 ft.
Temperature 14°F
Dewpoint 9°F
Altimeter 29.92 in.Hg
Derived measurements
Relative humidity 79%
Wind chill 4°F
Density altitude -3052 ft.
Sea-level pressure 29.93 in.Hg
Remarks
Visibility east.
METAR CWEU 251200Z 21006KT 15SM FEW010 FEW030 FEW100 BKN220 M10/M13 A2992 RMK ST1SC1AC1CI3 ST TR VIS LWR E 10 BR SLP135

Settings

Location code

InnerDrive.Weather 4.0.6615.0 Release CLR 4.0.30319.42000
Copyright ©2018 Inner Drive Technology. All rights reserved. Portions Copyright ©1986-2018 David Braverman.

Find weather

Site navigation


Skip Navigation Links

Place info

Page info

PayPal - The safer, easier way to pay online!

Return home.

Copyright ©2018 Inner Drive Technology. Purveyors of fine, hand-crafted computer software. Page printed 2018-05-25T12:46:47 UTC.